Rauch, Argentina
Current Conditions -  °F | °C
As of 6:00 PM on Wednesday 26 Nov 2014 (Local Time) from SAZM Reporting Station
Broken Clouds Broken Clouds  
Wind Chill: 79°   Ceiling: 20000
Heat Index: 79°   Visibility: 6mi
Dew Point: 54°   Wind: 16mph
Humidity: 42%   Direction: 340°NNW
Pressure: 29.83"   Gusts: NA
Location:  36.77°S, 59.1°W
Report Text: SAZM 262100Z 34014KT 9999 FEW030 FEW035TCUBKN200 26/12 Q1010
Loading
Personal Weather Stations






























Interactive Weather Map New forecast layout! Learn more

10-Day Weather Forecast

Advertisements
Track Severe Weather on mobile